sensor_id;sensor_type;location;lat;lon;timestamp;P1;durP1;ratioP1;P2;durP2;ratioP2
83253;SDS011;73149;47.270;39.602;2023-11-21T00:00:31;11.00;;;4.93;;
83253;SDS011;73149;47.270;39.602;2023-11-21T00:02:57;9.15;;;4.45;;
83253;SDS011;73149;47.270;39.602;2023-11-21T00:05:23;9.82;;;4.78;;
83253;SDS011;73149;47.270;39.602;2023-11-21T00:07:49;10.80;;;4.53;;
83253;SDS011;73149;47.270;39.602;2023-11-21T00:10:14;9.65;;;4.43;;
83253;SDS011;73149;47.270;39.602;2023-11-21T00:12:41;15.15;;;5.78;;
83253;SDS011;73149;47.270;39.602;2023-11-21T00:15:07;11.15;;;4.97;;
83253;SDS011;73149;47.270;39.602;2023-11-21T00:17:37;10.38;;;4.22;;
83253;SDS011;73149;47.270;39.602;2023-11-21T00:20:03;9.60;;;4.00;;
83253;SDS011;73149;47.270;39.602;2023-11-21T00:22:32;20.17;;;4.40;;
83253;SDS011;73149;47.270;39.602;2023-11-21T00:24:59;7.82;;;3.45;;
83253;SDS011;73149;47.270;39.602;2023-11-21T00:27:25;8.90;;;4.00;;
83253;SDS011;73149;47.270;39.602;2023-11-21T00:29:51;8.35;;;4.13;;
83253;SDS011;73149;47.270;39.602;2023-11-21T00:32:17;9.75;;;3.85;;
83253;SDS011;73149;47.270;39.602;2023-11-21T00:34:42;9.15;;;4.28;;
83253;SDS011;73149;47.270;39.602;2023-11-21T00:37:09;13.77;;;5.53;;
83253;SDS011;73149;47.270;39.602;2023-11-21T00:39:35;8.50;;;3.85;;
83253;SDS011;73149;47.270;39.602;2023-11-21T00:42:00;10.02;;;4.32;;
83253;SDS011;73149;47.270;39.602;2023-11-21T00:44:26;9.68;;;4.28;;
83253;SDS011;73149;47.270;39.602;2023-11-21T00:46:52;10.68;;;4.85;;
83253;SDS011;73149;47.270;39.602;2023-11-21T00:49:18;10.30;;;3.80;;
83253;SDS011;73149;47.270;39.602;2023-11-21T00:51:46;11.48;;;4.70;;
83253;SDS011;73149;47.270;39.602;2023-11-21T00:54:11;9.18;;;3.90;;
83253;SDS011;73149;47.270;39.602;2023-11-21T00:56:37;9.95;;;4.68;;
83253;SDS011;73149;47.270;39.602;2023-11-21T00:59:05;10.05;;;4.75;;
83253;SDS011;73149;47.270;39.602;2023-11-21T01:01:32;11.43;;;5.63;;
83253;SDS011;73149;47.270;39.602;2023-11-21T01:03:58;9.05;;;4.05;;
83253;SDS011;73149;47.270;39.602;2023-11-21T01:06:24;12.25;;;5.07;;
83253;SDS011;73149;47.270;39.602;2023-11-21T01:08:50;9.98;;;4.45;;
83253;SDS011;73149;47.270;39.602;2023-11-21T01:11:16;11.23;;;4.28;;
83253;SDS011;73149;47.270;39.602;2023-11-21T01:13:42;10.95;;;4.60;;
83253;SDS011;73149;47.270;39.602;2023-11-21T01:16:08;9.05;;;4.32;;
83253;SDS011;73149;47.270;39.602;2023-11-21T01:18:37;10.02;;;4.97;;
83253;SDS011;73149;47.270;39.602;2023-11-21T01:21:03;9.00;;;4.03;;
83253;SDS011;73149;47.270;39.602;2023-11-21T01:23:30;10.32;;;4.60;;
83253;SDS011;73149;47.270;39.602;2023-11-21T01:25:56;12.43;;;4.70;;
83253;SDS011;73149;47.270;39.602;2023-11-21T01:28:22;11.15;;;4.63;;
83253;SDS011;73149;47.270;39.602;2023-11-21T01:30:48;9.85;;;4.43;;
83253;SDS011;73149;47.270;39.602;2023-11-21T01:33:14;8.85;;;3.72;;
83253;SDS011;73149;47.270;39.602;2023-11-21T01:35:43;11.57;;;5.03;;
83253;SDS011;73149;47.270;39.602;2023-11-21T01:38:12;14.93;;;5.55;;
83253;SDS011;73149;47.270;39.602;2023-11-21T01:40:38;7.93;;;3.50;;
83253;SDS011;73149;47.270;39.602;2023-11-21T01:43:04;11.60;;;4.57;;
83253;SDS011;73149;47.270;39.602;2023-11-21T01:45:30;10.35;;;4.82;;
83253;SDS011;73149;47.270;39.602;2023-11-21T01:47:59;9.02;;;4.15;;
83253;SDS011;73149;47.270;39.602;2023-11-21T01:50:26;9.93;;;4.80;;
83253;SDS011;73149;47.270;39.602;2023-11-21T01:52:52;5.82;;;2.83;;
83253;SDS011;73149;47.270;39.602;2023-11-21T01:55:19;9.65;;;3.92;;
83253;SDS011;73149;47.270;39.602;2023-11-21T01:57:45;9.90;;;4.15;;
83253;SDS011;73149;47.270;39.602;2023-11-21T02:00:13;9.70;;;4.55;;
83253;SDS011;73149;47.270;39.602;2023-11-21T02:02:45;7.45;;;3.15;;
83253;SDS011;73149;47.270;39.602;2023-11-21T02:05:12;10.93;;;4.30;;
83253;SDS011;73149;47.270;39.602;2023-11-21T02:07:40;8.25;;;4.53;;
83253;SDS011;73149;47.270;39.602;2023-11-21T02:10:08;9.05;;;4.35;;
83253;SDS011;73149;47.270;39.602;2023-11-21T02:12:35;7.32;;;3.40;;
83253;SDS011;73149;47.270;39.602;2023-11-21T02:15:05;10.77;;;4.72;;
83253;SDS011;73149;47.270;39.602;2023-11-21T02:17:43;8.85;;;4.10;;
83253;SDS011;73149;47.270;39.602;2023-11-21T02:20:10;6.97;;;3.60;;
83253;SDS011;73149;47.270;39.602;2023-11-21T02:22:43;9.07;;;3.75;;
83253;SDS011;73149;47.270;39.602;2023-11-21T02:27:51;6.57;;;3.55;;
83253;SDS011;73149;47.270;39.602;2023-11-21T02:30:17;7.72;;;3.78;;
83253;SDS011;73149;47.270;39.602;2023-11-21T02:32:44;7.03;;;3.28;;
83253;SDS011;73149;47.270;39.602;2023-11-21T02:35:09;6.68;;;3.33;;
83253;SDS011;73149;47.270;39.602;2023-11-21T02:37:37;8.15;;;2.78;;
83253;SDS011;73149;47.270;39.602;2023-11-21T02:40:04;7.28;;;3.28;;
83253;SDS011;73149;47.270;39.602;2023-11-21T02:42:35;6.68;;;3.15;;
83253;SDS011;73149;47.270;39.602;2023-11-21T02:45:01;7.18;;;3.15;;
83253;SDS011;73149;47.270;39.602;2023-11-21T02:47:26;6.93;;;3.15;;
83253;SDS011;73149;47.270;39.602;2023-11-21T02:49:52;6.53;;;3.28;;
83253;SDS011;73149;47.270;39.602;2023-11-21T02:52:18;6.18;;;2.78;;
83253;SDS011;73149;47.270;39.602;2023-11-21T02:54:44;6.07;;;3.10;;
83253;SDS011;73149;47.270;39.602;2023-11-21T02:57:10;5.88;;;2.15;;
83253;SDS011;73149;47.270;39.602;2023-11-21T02:59:36;4.90;;;1.95;;
83253;SDS011;73149;47.270;39.602;2023-11-21T03:02:02;7.22;;;3.45;;
83253;SDS011;73149;47.270;39.602;2023-11-21T03:04:28;5.25;;;2.33;;
83253;SDS011;73149;47.270;39.602;2023-11-21T03:06:54;7.43;;;3.10;;
83253;SDS011;73149;47.270;39.602;2023-11-21T03:09:20;6.43;;;3.10;;
83253;SDS011;73149;47.270;39.602;2023-11-21T03:11:45;5.65;;;2.20;;
83253;SDS011;73149;47.270;39.602;2023-11-21T03:14:11;8.38;;;2.95;;
83253;SDS011;73149;47.270;39.602;2023-11-21T03:16:38;7.53;;;3.35;;
83253;SDS011;73149;47.270;39.602;2023-11-21T03:19:04;6.13;;;2.78;;
83253;SDS011;73149;47.270;39.602;2023-11-21T03:21:30;6.68;;;3.45;;
83253;SDS011;73149;47.270;39.602;2023-11-21T03:23:56;5.22;;;2.42;;
83253;SDS011;73149;47.270;39.602;2023-11-21T03:26:22;7.47;;;3.35;;
83253;SDS011;73149;47.270;39.602;2023-11-21T03:28:48;5.03;;;2.30;;
83253;SDS011;73149;47.270;39.602;2023-11-21T03:31:14;4.78;;;2.30;;
83253;SDS011;73149;47.270;39.602;2023-11-21T03:33:42;5.25;;;2.35;;
83253;SDS011;73149;47.270;39.602;2023-11-21T03:36:08;6.88;;;2.67;;
83253;SDS011;73149;47.270;39.602;2023-11-21T03:38:35;5.00;;;2.35;;
83253;SDS011;73149;47.270;39.602;2023-11-21T03:41:03;5.63;;;2.75;;
83253;SDS011;73149;47.270;39.602;2023-11-21T03:43:30;6.00;;;2.70;;
83253;SDS011;73149;47.270;39.602;2023-11-21T03:45:55;6.25;;;2.85;;
83253;SDS011;73149;47.270;39.602;2023-11-21T03:48:21;5.55;;;2.53;;
83253;SDS011;73149;47.270;39.602;2023-11-21T03:50:48;5.32;;;2.55;;
83253;SDS011;73149;47.270;39.602;2023-11-21T03:53:14;5.30;;;2.38;;
83253;SDS011;73149;47.270;39.602;2023-11-21T03:55:39;5.90;;;3.13;;
83253;SDS011;73149;47.270;39.602;2023-11-21T03:58:05;5.68;;;2.63;;
83253;SDS011;73149;47.270;39.602;2023-11-21T04:00:31;6.50;;;2.63;;
83253;SDS011;73149;47.270;39.602;2023-11-21T04:02:57;4.68;;;2.00;;
83253;SDS011;73149;47.270;39.602;2023-11-21T04:05:23;5.45;;;2.50;;
83253;SDS011;73149;47.270;39.602;2023-11-21T04:07:50;5.78;;;2.55;;
83253;SDS011;73149;47.270;39.602;2023-11-21T04:10:16;5.28;;;2.65;;
83253;SDS011;73149;47.270;39.602;2023-11-21T04:12:43;5.30;;;2.30;;
83253;SDS011;73149;47.270;39.602;2023-11-21T04:15:10;7.38;;;3.10;;
83253;SDS011;73149;47.270;39.602;2023-11-21T04:17:37;5.85;;;2.30;;
83253;SDS011;73149;47.270;39.602;2023-11-21T04:20:04;4.22;;;2.03;;
83253;SDS011;73149;47.270;39.602;2023-11-21T04:22:39;4.97;;;2.05;;
83253;SDS011;73149;47.270;39.602;2023-11-21T04:25:12;6.82;;;2.70;;
83253;SDS011;73149;47.270;39.602;2023-11-21T04:27:39;6.53;;;2.63;;
83253;SDS011;73149;47.270;39.602;2023-11-21T04:30:06;8.52;;;3.63;;
83253;SDS011;73149;47.270;39.602;2023-11-21T04:32:32;6.35;;;2.65;;
83253;SDS011;73149;47.270;39.602;2023-11-21T04:34:58;4.50;;;1.98;;
83253;SDS011;73149;47.270;39.602;2023-11-21T04:37:24;4.97;;;2.33;;
83253;SDS011;73149;47.270;39.602;2023-11-21T04:39:50;5.07;;;2.42;;
83253;SDS011;73149;47.270;39.602;2023-11-21T04:42:17;5.82;;;2.50;;
83253;SDS011;73149;47.270;39.602;2023-11-21T04:44:42;6.15;;;2.65;;
83253;SDS011;73149;47.270;39.602;2023-11-21T04:47:09;5.75;;;2.63;;
83253;SDS011;73149;47.270;39.602;2023-11-21T04:49:36;6.78;;;2.65;;
83253;SDS011;73149;47.270;39.602;2023-11-21T04:52:02;4.65;;;2.15;;
83253;SDS011;73149;47.270;39.602;2023-11-21T04:54:29;6.35;;;2.95;;
83253;SDS011;73149;47.270;39.602;2023-11-21T04:56:56;6.05;;;2.67;;
83253;SDS011;73149;47.270;39.602;2023-11-21T04:59:22;5.60;;;2.58;;
83253;SDS011;73149;47.270;39.602;2023-11-21T05:01:52;6.25;;;3.10;;
83253;SDS011;73149;47.270;39.602;2023-11-21T05:04:19;5.97;;;2.95;;
83253;SDS011;73149;47.270;39.602;2023-11-21T05:06:47;4.95;;;2.33;;
83253;SDS011;73149;47.270;39.602;2023-11-21T05:09:13;7.90;;;3.15;;
83253;SDS011;73149;47.270;39.602;2023-11-21T05:11:39;7.38;;;3.15;;
83253;SDS011;73149;47.270;39.602;2023-11-21T05:14:06;6.07;;;2.20;;
83253;SDS011;73149;47.270;39.602;2023-11-21T05:16:32;5.93;;;2.28;;
83253;SDS011;73149;47.270;39.602;2023-11-21T05:18:59;6.00;;;2.67;;
83253;SDS011;73149;47.270;39.602;2023-11-21T05:21:26;9.38;;;3.13;;
83253;SDS011;73149;47.270;39.602;2023-11-21T05:23:52;5.10;;;2.28;;
83253;SDS011;73149;47.270;39.602;2023-11-21T05:26:19;8.35;;;3.85;;
83253;SDS011;73149;47.270;39.602;2023-11-21T05:28:45;7.97;;;3.53;;
83253;SDS011;73149;47.270;39.602;2023-11-21T05:31:11;8.75;;;4.93;;
83253;SDS011;73149;47.270;39.602;2023-11-21T05:33:37;9.25;;;3.92;;
83253;SDS011;73149;47.270;39.602;2023-11-21T05:36:04;10.48;;;3.50;;
83253;SDS011;73149;47.270;39.602;2023-11-21T05:38:30;10.93;;;3.33;;
83253;SDS011;73149;47.270;39.602;2023-11-21T05:40:55;8.50;;;4.05;;
83253;SDS011;73149;47.270;39.602;2023-11-21T05:43:23;9.13;;;4.22;;
83253;SDS011;73149;47.270;39.602;2023-11-21T05:45:49;7.00;;;3.15;;
83253;SDS011;73149;47.270;39.602;2023-11-21T05:48:15;11.23;;;4.68;;
83253;SDS011;73149;47.270;39.602;2023-11-21T05:50:41;7.78;;;3.13;;
83253;SDS011;73149;47.270;39.602;2023-11-21T05:53:07;6.05;;;2.53;;
83253;SDS011;73149;47.270;39.602;2023-11-21T05:55:35;6.22;;;3.08;;
83253;SDS011;73149;47.270;39.602;2023-11-21T05:58:01;8.02;;;3.85;;
83253;SDS011;73149;47.270;39.602;2023-11-21T06:00:26;7.97;;;3.70;;
83253;SDS011;73149;47.270;39.602;2023-11-21T06:02:53;6.70;;;3.30;;
83253;SDS011;73149;47.270;39.602;2023-11-21T06:05:20;6.00;;;3.00;;
83253;SDS011;73149;47.270;39.602;2023-11-21T06:07:48;8.13;;;3.92;;
83253;SDS011;73149;47.270;39.602;2023-11-21T06:10:15;7.97;;;3.50;;
83253;SDS011;73149;47.270;39.602;2023-11-21T06:12:43;7.60;;;2.92;;
83253;SDS011;73149;47.270;39.602;2023-11-21T06:15:09;6.45;;;2.85;;
83253;SDS011;73149;47.270;39.602;2023-11-21T06:17:38;7.15;;;3.05;;
83253;SDS011;73149;47.270;39.602;2023-11-21T06:20:05;5.82;;;2.78;;
83253;SDS011;73149;47.270;39.602;2023-11-21T06:22:40;7.72;;;3.67;;
83253;SDS011;73149;47.270;39.602;2023-11-21T06:25:09;6.90;;;3.47;;
83253;SDS011;73149;47.270;39.602;2023-11-21T06:27:47;5.93;;;2.90;;
83253;SDS011;73149;47.270;39.602;2023-11-21T06:30:14;5.97;;;2.45;;
83253;SDS011;73149;47.270;39.602;2023-11-21T06:32:40;6.35;;;2.75;;
83253;SDS011;73149;47.270;39.602;2023-11-21T06:35:10;5.20;;;2.78;;
83253;SDS011;73149;47.270;39.602;2023-11-21T06:37:37;9.48;;;2.90;;
83253;SDS011;73149;47.270;39.602;2023-11-21T06:40:03;4.70;;;2.45;;
83253;SDS011;73149;47.270;39.602;2023-11-21T06:42:29;8.18;;;2.60;;
83253;SDS011;73149;47.270;39.602;2023-11-21T06:44:55;4.80;;;2.55;;
83253;SDS011;73149;47.270;39.602;2023-11-21T06:47:23;3.92;;;1.90;;
83253;SDS011;73149;47.270;39.602;2023-11-21T06:49:53;4.20;;;2.10;;
83253;SDS011;73149;47.270;39.602;2023-11-21T06:52:19;4.32;;;2.08;;
83253;SDS011;73149;47.270;39.602;2023-11-21T06:54:47;5.15;;;2.55;;
83253;SDS011;73149;47.270;39.602;2023-11-21T06:57:14;3.58;;;1.92;;
83253;SDS011;73149;47.270;39.602;2023-11-21T06:59:40;6.68;;;2.90;;
83253;SDS011;73149;47.270;39.602;2023-11-21T07:02:07;5.00;;;2.15;;
83253;SDS011;73149;47.270;39.602;2023-11-21T07:04:33;6.72;;;3.15;;
83253;SDS011;73149;47.270;39.602;2023-11-21T07:06:59;8.15;;;2.58;;
83253;SDS011;73149;47.270;39.602;2023-11-21T07:09:25;4.28;;;2.17;;
83253;SDS011;73149;47.270;39.602;2023-11-21T07:11:54;6.88;;;3.25;;
83253;SDS011;73149;47.270;39.602;2023-11-21T07:14:21;8.13;;;2.55;;
83253;SDS011;73149;47.270;39.602;2023-11-21T07:16:47;12.65;;;4.32;;
83253;SDS011;73149;47.270;39.602;2023-11-21T07:19:13;9.65;;;4.13;;
83253;SDS011;73149;47.270;39.602;2023-11-21T07:21:39;9.60;;;4.85;;
83253;SDS011;73149;47.270;39.602;2023-11-21T07:24:06;8.27;;;3.80;;
83253;SDS011;73149;47.270;39.602;2023-11-21T07:26:33;6.75;;;3.42;;
83253;SDS011;73149;47.270;39.602;2023-11-21T07:28:59;10.82;;;3.63;;
83253;SDS011;73149;47.270;39.602;2023-11-21T07:31:27;7.28;;;3.15;;
83253;SDS011;73149;47.270;39.602;2023-11-21T07:33:54;7.20;;;4.00;;
83253;SDS011;73149;47.270;39.602;2023-11-21T07:36:23;9.25;;;3.65;;
83253;SDS011;73149;47.270;39.602;2023-11-21T07:38:49;7.05;;;3.65;;
83253;SDS011;73149;47.270;39.602;2023-11-21T07:41:15;5.63;;;2.88;;
83253;SDS011;73149;47.270;39.602;2023-11-21T07:43:43;8.10;;;3.63;;
83253;SDS011;73149;47.270;39.602;2023-11-21T07:46:09;6.85;;;3.00;;
83253;SDS011;73149;47.270;39.602;2023-11-21T07:48:38;5.47;;;2.60;;
83253;SDS011;73149;47.270;39.602;2023-11-21T07:51:05;6.22;;;3.00;;
83253;SDS011;73149;47.270;39.602;2023-11-21T07:53:32;5.45;;;2.65;;
83253;SDS011;73149;47.270;39.602;2023-11-21T07:55:58;4.93;;;2.78;;
83253;SDS011;73149;47.270;39.602;2023-11-21T07:58:31;6.72;;;2.75;;
83253;SDS011;73149;47.270;39.602;2023-11-21T08:01:00;4.50;;;2.22;;
83253;SDS011;73149;47.270;39.602;2023-11-21T08:03:27;5.38;;;2.38;;
83253;SDS011;73149;47.270;39.602;2023-11-21T08:05:55;7.07;;;2.55;;
83253;SDS011;73149;47.270;39.602;2023-11-21T08:08:23;8.20;;;3.38;;
83253;SDS011;73149;47.270;39.602;2023-11-21T08:10:49;6.28;;;3.30;;
83253;SDS011;73149;47.270;39.602;2023-11-21T08:13:24;5.85;;;2.75;;
83253;SDS011;73149;47.270;39.602;2023-11-21T08:20:45;4.82;;;2.10;;
83253;SDS011;73149;47.270;39.602;2023-11-21T08:23:16;5.22;;;2.35;;
83253;SDS011;73149;47.270;39.602;2023-11-21T08:25:46;6.35;;;3.03;;
83253;SDS011;73149;47.270;39.602;2023-11-21T08:28:12;8.32;;;2.78;;
83253;SDS011;73149;47.270;39.602;2023-11-21T08:30:41;5.30;;;2.22;;
83253;SDS011;73149;47.270;39.602;2023-11-21T08:33:08;5.85;;;2.78;;
83253;SDS011;73149;47.270;39.602;2023-11-21T08:35:34;3.97;;;1.85;;
83253;SDS011;73149;47.270;39.602;2023-11-21T08:38:01;3.72;;;1.55;;
83253;SDS011;73149;47.270;39.602;2023-11-21T08:40:28;4.97;;;2.22;;
83253;SDS011;73149;47.270;39.602;2023-11-21T08:42:54;6.88;;;2.65;;
83253;SDS011;73149;47.270;39.602;2023-11-21T08:45:21;4.55;;;2.22;;
83253;SDS011;73149;47.270;39.602;2023-11-21T08:47:47;4.40;;;1.80;;
83253;SDS011;73149;47.270;39.602;2023-11-21T08:50:13;4.15;;;1.90;;
83253;SDS011;73149;47.270;39.602;2023-11-21T08:52:40;6.43;;;2.25;;
83253;SDS011;73149;47.270;39.602;2023-11-21T08:55:06;3.95;;;1.95;;
83253;SDS011;73149;47.270;39.602;2023-11-21T08:57:35;3.60;;;1.48;;
83253;SDS011;73149;47.270;39.602;2023-11-21T09:00:05;4.78;;;1.92;;
83253;SDS011;73149;47.270;39.602;2023-11-21T09:02:44;6.57;;;2.33;;
83253;SDS011;73149;47.270;39.602;2023-11-21T09:05:11;5.13;;;2.30;;
83253;SDS011;73149;47.270;39.602;2023-11-21T09:07:39;4.35;;;2.05;;
83253;SDS011;73149;47.270;39.602;2023-11-21T09:10:11;4.75;;;2.50;;
83253;SDS011;73149;47.270;39.602;2023-11-21T09:12:37;5.07;;;2.28;;
83253;SDS011;73149;47.270;39.602;2023-11-21T09:15:07;5.93;;;1.88;;
83253;SDS011;73149;47.270;39.602;2023-11-21T09:17:35;3.60;;;1.50;;
83253;SDS011;73149;47.270;39.602;2023-11-21T09:20:01;5.90;;;2.75;;
83253;SDS011;73149;47.270;39.602;2023-11-21T09:22:30;4.03;;;1.83;;
83253;SDS011;73149;47.270;39.602;2023-11-21T09:24:57;5.90;;;2.10;;
83253;SDS011;73149;47.270;39.602;2023-11-21T09:27:23;4.07;;;1.90;;
83253;SDS011;73149;47.270;39.602;2023-11-21T09:29:50;5.38;;;2.47;;
83253;SDS011;73149;47.270;39.602;2023-11-21T09:32:18;4.93;;;2.22;;
83253;SDS011;73149;47.270;39.602;2023-11-21T09:34:44;3.85;;;1.98;;
83253;SDS011;73149;47.270;39.602;2023-11-21T09:37:10;4.78;;;2.38;;
83253;SDS011;73149;47.270;39.602;2023-11-21T09:39:36;4.28;;;1.98;;
83253;SDS011;73149;47.270;39.602;2023-11-21T09:44:48;5.28;;;2.40;;
83253;SDS011;73149;47.270;39.602;2023-11-21T09:47:35;6.72;;;2.42;;
83253;SDS011;73149;47.270;39.602;2023-11-21T09:50:03;5.03;;;2.15;;
83253;SDS011;73149;47.270;39.602;2023-11-21T09:52:33;4.38;;;2.20;;
83253;SDS011;73149;47.270;39.602;2023-11-21T09:55:10;5.85;;;3.20;;
83253;SDS011;73149;47.270;39.602;2023-11-21T09:57:40;5.22;;;2.22;;
83253;SDS011;73149;47.270;39.602;2023-11-21T10:00:07;7.45;;;3.10;;
83253;SDS011;73149;47.270;39.602;2023-11-21T10:05:03;3.88;;;2.00;;
83253;SDS011;73149;47.270;39.602;2023-11-21T10:07:30;5.40;;;3.08;;
83253;SDS011;73149;47.270;39.602;2023-11-21T10:09:59;4.80;;;2.42;;
83253;SDS011;73149;47.270;39.602;2023-11-21T10:12:27;6.60;;;2.40;;
83253;SDS011;73149;47.270;39.602;2023-11-21T10:14:54;5.15;;;2.40;;
83253;SDS011;73149;47.270;39.602;2023-11-21T10:17:25;7.03;;;2.65;;
83253;SDS011;73149;47.270;39.602;2023-11-21T10:19:56;7.20;;;3.15;;
83253;SDS011;73149;47.270;39.602;2023-11-21T10:22:22;4.35;;;2.08;;
83253;SDS011;73149;47.270;39.602;2023-11-21T10:24:49;5.57;;;2.33;;
83253;SDS011;73149;47.270;39.602;2023-11-21T10:27:15;5.35;;;2.30;;
83253;SDS011;73149;47.270;39.602;2023-11-21T10:29:41;4.57;;;2.22;;
83253;SDS011;73149;47.270;39.602;2023-11-21T10:32:07;4.10;;;2.17;;
83253;SDS011;73149;47.270;39.602;2023-11-21T10:34:33;5.60;;;2.65;;
83253;SDS011;73149;47.270;39.602;2023-11-21T10:36:59;5.70;;;2.22;;
83253;SDS011;73149;47.270;39.602;2023-11-21T10:39:37;4.85;;;2.53;;
83253;SDS011;73149;47.270;39.602;2023-11-21T10:42:04;5.32;;;2.60;;
83253;SDS011;73149;47.270;39.602;2023-11-21T10:44:33;6.30;;;2.70;;
83253;SDS011;73149;47.270;39.602;2023-11-21T10:46:59;4.35;;;2.08;;
83253;SDS011;73149;47.270;39.602;2023-11-21T10:49:26;4.60;;;2.20;;
83253;SDS011;73149;47.270;39.602;2023-11-21T10:51:55;4.80;;;2.42;;
83253;SDS011;73149;47.270;39.602;2023-11-21T10:54:22;6.20;;;2.10;;
83253;SDS011;73149;47.270;39.602;2023-11-21T10:56:51;5.10;;;2.47;;
83253;SDS011;73149;47.270;39.602;2023-11-21T10:59:22;5.13;;;2.63;;
83253;SDS011;73149;47.270;39.602;2023-11-21T11:01:50;6.13;;;2.78;;
83253;SDS011;73149;47.270;39.602;2023-11-21T11:04:18;6.60;;;3.17;;
83253;SDS011;73149;47.270;39.602;2023-11-21T11:06:45;4.35;;;2.30;;
83253;SDS011;73149;47.270;39.602;2023-11-21T11:09:18;5.38;;;2.47;;
83253;SDS011;73149;47.270;39.602;2023-11-21T11:11:44;4.95;;;2.38;;
83253;SDS011;73149;47.270;39.602;2023-11-21T11:14:12;4.13;;;1.55;;
83253;SDS011;73149;47.270;39.602;2023-11-21T11:16:40;5.00;;;1.95;;
83253;SDS011;73149;47.270;39.602;2023-11-21T11:19:07;6.90;;;2.70;;
83253;SDS011;73149;47.270;39.602;2023-11-21T11:21:43;4.75;;;2.17;;
83253;SDS011;73149;47.270;39.602;2023-11-21T11:24:32;5.63;;;2.47;;
83253;SDS011;73149;47.270;39.602;2023-11-21T11:27:21;4.43;;;2.08;;
83253;SDS011;73149;47.270;39.602;2023-11-21T11:30:08;5.00;;;2.30;;
83253;SDS011;73149;47.270;39.602;2023-11-21T11:35:46;3.95;;;1.80;;
83253;SDS011;73149;47.270;39.602;2023-11-21T11:38:27;4.28;;;2.05;;
83253;SDS011;73149;47.270;39.602;2023-11-21T11:40:57;5.07;;;1.90;;
83253;SDS011;73149;47.270;39.602;2023-11-21T11:43:29;5.38;;;1.42;;
83253;SDS011;73149;47.270;39.602;2023-11-21T11:45:58;6.47;;;3.13;;
83253;SDS011;73149;47.270;39.602;2023-11-21T11:48:25;5.35;;;2.22;;
83253;SDS011;73149;47.270;39.602;2023-11-21T11:51:03;8.30;;;3.13;;
83253;SDS011;73149;47.270;39.602;2023-11-21T11:53:40;4.50;;;2.05;;
83253;SDS011;73149;47.270;39.602;2023-11-21T11:58:48;3.83;;;1.73;;
83253;SDS011;73149;47.270;39.602;2023-11-21T12:01:17;4.88;;;2.40;;
83253;SDS011;73149;47.270;39.602;2023-11-21T12:03:44;6.00;;;2.50;;
83253;SDS011;73149;47.270;39.602;2023-11-21T12:06:33;5.13;;;2.33;;
83253;SDS011;73149;47.270;39.602;2023-11-21T12:09:01;5.88;;;2.60;;
83253;SDS011;73149;47.270;39.602;2023-11-21T12:11:33;5.72;;;2.13;;
83253;SDS011;73149;47.270;39.602;2023-11-21T12:14:02;5.40;;;2.35;;
83253;SDS011;73149;47.270;39.602;2023-11-21T12:16:32;5.15;;;2.20;;
83253;SDS011;73149;47.270;39.602;2023-11-21T12:18:58;8.02;;;2.70;;
83253;SDS011;73149;47.270;39.602;2023-11-21T12:21:24;6.25;;;2.65;;
83253;SDS011;73149;47.270;39.602;2023-11-21T12:23:50;6.20;;;2.72;;
83253;SDS011;73149;47.270;39.602;2023-11-21T12:26:16;7.10;;;3.00;;
83253;SDS011;73149;47.270;39.602;2023-11-21T12:28:43;10.57;;;3.25;;
83253;SDS011;73149;47.270;39.602;2023-11-21T12:31:08;9.50;;;3.75;;
83253;SDS011;73149;47.270;39.602;2023-11-21T12:33:36;6.30;;;3.40;;
83253;SDS011;73149;47.270;39.602;2023-11-21T12:36:02;11.32;;;4.32;;
83253;SDS011;73149;47.270;39.602;2023-11-21T12:38:35;6.45;;;3.13;;
83253;SDS011;73149;47.270;39.602;2023-11-21T12:41:01;6.50;;;3.08;;
83253;SDS011;73149;47.270;39.602;2023-11-21T12:43:26;8.70;;;3.75;;
83253;SDS011;73149;47.270;39.602;2023-11-21T12:46:06;7.07;;;3.42;;
83253;SDS011;73149;47.270;39.602;2023-11-21T12:48:37;7.47;;;3.08;;
83253;SDS011;73149;47.270;39.602;2023-11-21T12:51:08;6.60;;;3.13;;
83253;SDS011;73149;47.270;39.602;2023-11-21T12:53:35;7.15;;;3.55;;
83253;SDS011;73149;47.270;39.602;2023-11-21T12:56:07;6.10;;;2.75;;
83253;SDS011;73149;47.270;39.602;2023-11-21T12:58:40;7.78;;;3.42;;
83253;SDS011;73149;47.270;39.602;2023-11-21T13:01:12;5.55;;;2.63;;
83253;SDS011;73149;47.270;39.602;2023-11-21T13:03:43;6.40;;;2.75;;
83253;SDS011;73149;47.270;39.602;2023-11-21T13:06:14;7.18;;;3.55;;
83253;SDS011;73149;47.270;39.602;2023-11-21T13:08:41;7.10;;;3.35;;
83253;SDS011;73149;47.270;39.602;2023-11-21T13:11:10;9.00;;;3.45;;
83253;SDS011;73149;47.270;39.602;2023-11-21T13:13:36;8.05;;;3.08;;
83253;SDS011;73149;47.270;39.602;2023-11-21T13:16:07;8.05;;;3.40;;
83253;SDS011;73149;47.270;39.602;2023-11-21T13:18:33;8.80;;;2.60;;
83253;SDS011;73149;47.270;39.602;2023-11-21T13:21:03;9.13;;;4.03;;
83253;SDS011;73149;47.270;39.602;2023-11-21T13:23:35;7.47;;;3.17;;
83253;SDS011;73149;47.270;39.602;2023-11-21T13:26:02;11.05;;;4.28;;
83253;SDS011;73149;47.270;39.602;2023-11-21T13:28:30;7.25;;;2.95;;
83253;SDS011;73149;47.270;39.602;2023-11-21T13:31:00;6.95;;;3.45;;
83253;SDS011;73149;47.270;39.602;2023-11-21T13:35:55;5.38;;;2.80;;
83253;SDS011;73149;47.270;39.602;2023-11-21T13:38:22;6.90;;;3.28;;
83253;SDS011;73149;47.270;39.602;2023-11-21T13:40:49;11.32;;;4.95;;
83253;SDS011;73149;47.270;39.602;2023-11-21T13:43:18;10.75;;;4.47;;
83253;SDS011;73149;47.270;39.602;2023-11-21T13:45:47;10.13;;;4.32;;
83253;SDS011;73149;47.270;39.602;2023-11-21T13:48:17;10.02;;;4.68;;
83253;SDS011;73149;47.270;39.602;2023-11-21T13:50:50;11.60;;;5.03;;
83253;SDS011;73149;47.270;39.602;2023-11-21T13:53:35;8.93;;;3.67;;
83253;SDS011;73149;47.270;39.602;2023-11-21T13:56:03;11.23;;;4.75;;
83253;SDS011;73149;47.270;39.602;2023-11-21T13:58:29;9.88;;;4.97;;
83253;SDS011;73149;47.270;39.602;2023-11-21T14:01:17;10.65;;;4.00;;
83253;SDS011;73149;47.270;39.602;2023-11-21T14:04:02;8.98;;;3.78;;
83253;SDS011;73149;47.270;39.602;2023-11-21T14:06:42;5.78;;;2.70;;
83253;SDS011;73149;47.270;39.602;2023-11-21T14:09:15;8.60;;;3.70;;
83253;SDS011;73149;47.270;39.602;2023-11-21T14:11:51;8.38;;;3.67;;
83253;SDS011;73149;47.270;39.602;2023-11-21T14:14:22;8.35;;;3.15;;
83253;SDS011;73149;47.270;39.602;2023-11-21T14:16:55;8.63;;;3.55;;
83253;SDS011;73149;47.270;39.602;2023-11-21T14:19:24;8.50;;;4.05;;
83253;SDS011;73149;47.270;39.602;2023-11-21T14:21:56;7.50;;;3.05;;
83253;SDS011;73149;47.270;39.602;2023-11-21T14:24:22;7.43;;;3.20;;
83253;SDS011;73149;47.270;39.602;2023-11-21T14:26:49;7.80;;;3.60;;
83253;SDS011;73149;47.270;39.602;2023-11-21T14:29:16;8.07;;;3.35;;
83253;SDS011;73149;47.270;39.602;2023-11-21T14:31:45;6.78;;;3.10;;
83253;SDS011;73149;47.270;39.602;2023-11-21T14:34:11;8.18;;;3.35;;
83253;SDS011;73149;47.270;39.602;2023-11-21T14:36:38;9.13;;;3.63;;
83253;SDS011;73149;47.270;39.602;2023-11-21T14:39:05;6.68;;;3.30;;
83253;SDS011;73149;47.270;39.602;2023-11-21T14:41:34;8.75;;;4.15;;
83253;SDS011;73149;47.270;39.602;2023-11-21T14:44:02;6.28;;;3.20;;
83253;SDS011;73149;47.270;39.602;2023-11-21T14:46:29;8.07;;;3.63;;
83253;SDS011;73149;47.270;39.602;2023-11-21T14:48:56;8.10;;;3.80;;
83253;SDS011;73149;47.270;39.602;2023-11-21T14:51:32;7.32;;;3.55;;
83253;SDS011;73149;47.270;39.602;2023-11-21T14:54:08;6.68;;;3.38;;
83253;SDS011;73149;47.270;39.602;2023-11-21T14:56:35;8.25;;;4.00;;
83253;SDS011;73149;47.270;39.602;2023-11-21T14:59:03;10.35;;;4.50;;